Time;durP1;ratioP1;P1;durP2;ratioP2;P2;SDS_P1;SDS_P2;PMS_P1;PMS_P2;Temp;Humidity;BMP_temperature;BMP_pressure;BME280_temperature;BME280_humidity;BME280_pressure;Samples;Min_cycle;Max_cycle;Signal;HPM_P1;HPM_P2
2024/03/25 00:03:56;;;;;;;;;;;4.70;99.90;;;;;;8364040;28;20371;-75
2024/03/25 00:07:58;;;;;;;;;;;4.60;99.90;;;;;;8361353;28;20253;-75
2024/03/25 00:11:58;;;;;;;;;;;4.60;99.90;;;;;;8382094;28;19920;-75
2024/03/25 00:15:59;;;;;;;;;;;4.60;99.90;;;;;;8375114;28;19959;-75
2024/03/25 00:20:00;;;;;;;;;;;4.60;99.90;;;;;;8384713;28;19928;-74
2024/03/25 00:24:01;;;;;;;;;;;4.60;99.90;;;;;;8373336;28;19994;-74
2024/03/25 00:28:02;;;;;;;;;;;4.70;99.90;;;;;;8373215;28;21555;-74
2024/03/25 00:32:03;;;;;;;;;;;4.70;99.90;;;;;;8375637;28;19942;-74
2024/03/25 00:36:04;;;;;;;;;;;4.70;99.90;;;;;;8356518;28;19920;-74
2024/03/25 00:40:07;;;;;;;;;;;4.80;99.90;;;;;;8374758;28;19927;-75
2024/03/25 00:44:07;;;;;;;;;;;4.80;99.90;;;;;;8363190;28;19920;-75
2024/03/25 00:48:08;;;;;;;;;;;4.80;99.90;;;;;;8372824;28;19932;-74
2024/03/25 00:52:09;;;;;;;;;;;4.80;99.90;;;;;;8380582;28;19935;-74
2024/03/25 00:56:10;;;;;;;;;;;4.70;99.90;;;;;;8375736;28;19924;-75
2024/03/25 01:00:11;;;;;;;;;;;4.70;99.90;;;;;;8385859;28;20372;-75
2024/03/25 01:04:13;;;;;;;;;;;4.60;99.90;;;;;;8378157;28;20834;-74
2024/03/25 01:08:14;;;;;;;;;;;4.60;99.90;;;;;;8379441;28;19920;-75
2024/03/25 01:12:15;;;;;;;;;;;4.50;99.90;;;;;;8382402;28;19983;-75
2024/03/25 01:16:16;;;;;;;;;;;4.40;99.90;;;;;;8382443;28;19999;-75
2024/03/25 01:20:17;;;;;;;;;;;4.40;99.90;;;;;;8395076;28;20050;-75
2024/03/25 01:24:18;;;;;;;;;;;4.20;99.90;;;;;;8380264;28;20027;-75
2024/03/25 01:28:19;;;;;;;;;;;4.20;99.90;;;;;;8362736;28;19924;-75
2024/03/25 01:32:20;;;;;;;;;;;4.10;99.90;;;;;;8379452;28;20334;-74
2024/03/25 01:36:20;;;;;;;;;;;4.10;99.90;;;;;;8380053;28;19950;-75
2024/03/25 01:40:21;;;;;;;;;;;4.10;99.90;;;;;;8389316;28;19928;-75
2024/03/25 01:44:22;;;;;;;;;;;4.00;99.90;;;;;;8377550;28;19974;-74
2024/03/25 01:48:23;;;;;;;;;;;4.00;99.90;;;;;;8363259;28;20069;-75
2024/03/25 01:52:25;;;;;;;;;;;4.00;99.90;;;;;;8363704;28;19924;-75
2024/03/25 01:56:27;;;;;;;;;;;3.90;99.90;;;;;;8381618;28;20363;-75
2024/03/25 02:00:53;;;;;;;;;;;3.90;99.90;;;;;;8368440;28;20375;-75
2024/03/25 02:04:54;;;;;;;;;;;3.90;99.90;;;;;;8374844;28;20282;-75
2024/03/25 02:08:56;;;;;;;;;;;3.80;99.90;;;;;;8382760;28;19943;-75
2024/03/25 02:12:57;;;;;;;;;;;3.80;99.90;;;;;;8367110;28;20299;-74
2024/03/25 02:22:02;;;;;;;;;;;3.70;99.90;;;;;;8389664;28;21546;-75
2024/03/25 02:31:06;;;;;;;;;;;3.60;99.90;;;;;;8394353;28;20003;-75
2024/03/25 02:35:08;;;;;;;;;;;3.50;99.90;;;;;;8390609;28;19927;-75
2024/03/25 02:39:09;;;;;;;;;;;3.40;99.90;;;;;;8376516;28;20384;-74
2024/03/25 02:43:11;;;;;;;;;;;3.50;99.90;;;;;;8367782;28;19934;-75
2024/03/25 02:47:12;;;;;;;;;;;3.60;99.90;;;;;;8376827;28;19996;-75
2024/03/25 02:51:13;;;;;;;;;;;3.70;99.90;;;;;;8373891;28;19924;-75
2024/03/25 02:55:21;;;;;;;;;;;3.80;99.90;;;;;;8359138;28;19936;-75
2024/03/25 02:59:22;;;;;;;;;;;3.90;99.90;;;;;;8383320;28;19928;-75
2024/03/25 03:03:23;;;;;;;;;;;4.00;99.90;;;;;;8359591;28;20379;-74
2024/03/25 03:07:24;;;;;;;;;;;4.00;99.90;;;;;;8378182;28;19935;-75
2024/03/25 03:11:24;;;;;;;;;;;4.10;99.90;;;;;;8383353;28;19927;-75
2024/03/25 03:15:25;;;;;;;;;;;4.00;99.90;;;;;;8378118;28;19989;-75
2024/03/25 03:19:26;;;;;;;;;;;3.90;99.90;;;;;;8378903;28;21496;-74
2024/03/25 03:24:04;;;;;;;;;;;3.90;99.90;;;;;;8374056;28;20009;-75
2024/03/25 03:28:04;;;;;;;;;;;3.80;99.90;;;;;;8377148;28;19926;-74
2024/03/25 03:32:06;;;;;;;;;;;3.80;99.90;;;;;;8389607;28;20021;-75
2024/03/25 03:36:06;;;;;;;;;;;3.70;99.90;;;;;;8401092;28;20006;-74
2024/03/25 03:40:08;;;;;;;;;;;3.70;99.90;;;;;;8373277;28;19950;-74
2024/03/25 03:44:09;;;;;;;;;;;3.70;99.90;;;;;;8363732;28;19923;-75
2024/03/25 03:48:22;;;;;;;;;;;3.70;99.90;;;;;;8373932;28;19920;-75
2024/03/25 03:52:32;;;;;;;;;;;3.70;99.90;;;;;;8362357;28;19931;-74
2024/03/25 03:56:33;;;;;;;;;;;3.70;99.90;;;;;;8380289;28;19949;-75
2024/03/25 04:00:34;;;;;;;;;;;3.60;99.90;;;;;;8374555;28;19987;-74
2024/03/25 04:04:35;;;;;;;;;;;3.50;99.90;;;;;;8379867;28;19920;-75
2024/03/25 04:08:36;;;;;;;;;;;3.50;99.90;;;;;;8400069;28;19927;-75
2024/03/25 04:12:38;;;;;;;;;;;3.40;99.90;;;;;;8364832;28;19920;-74
2024/03/25 04:16:39;;;;;;;;;;;3.40;99.90;;;;;;8389237;28;19985;-75
2024/03/25 04:20:41;;;;;;;;;;;3.40;99.90;;;;;;8409481;28;20379;-74
2024/03/25 04:24:43;;;;;;;;;;;3.30;99.90;;;;;;8389559;28;20374;-75
2024/03/25 04:28:43;;;;;;;;;;;3.30;99.90;;;;;;8385488;28;20379;-75
2024/03/25 04:32:44;;;;;;;;;;;3.30;99.90;;;;;;8386256;28;20445;-75
2024/03/25 04:36:45;;;;;;;;;;;3.30;99.90;;;;;;8397023;28;19924;-74
2024/03/25 04:40:46;;;;;;;;;;;3.30;99.90;;;;;;8398527;28;19927;-74
2024/03/25 04:44:47;;;;;;;;;;;3.30;99.90;;;;;;8376813;28;19928;-74
2024/03/25 04:48:48;;;;;;;;;;;3.30;99.90;;;;;;8363874;28;19935;-76
2024/03/25 04:52:49;;;;;;;;;;;3.30;99.90;;;;;;8389118;28;19956;-75
2024/03/25 04:56:49;;;;;;;;;;;3.20;99.90;;;;;;8392780;28;19938;-75
2024/03/25 05:00:50;;;;;;;;;;;3.20;99.90;;;;;;8384989;28;19920;-74
2024/03/25 05:04:52;;;;;;;;;;;3.20;99.90;;;;;;8407486;28;19993;-75
2024/03/25 05:08:53;;;;;;;;;;;3.20;99.90;;;;;;8411586;28;19923;-74
2024/03/25 05:12:55;;;;;;;;;;;3.10;99.90;;;;;;8397593;28;20019;-74
2024/03/25 05:16:56;;;;;;;;;;;3.00;99.90;;;;;;8409707;28;20309;-75
2024/03/25 05:20:57;;;;;;;;;;;2.90;99.90;;;;;;8400697;28;19970;-75
2024/03/25 05:24:57;;;;;;;;;;;2.90;99.90;;;;;;8409442;28;20270;-74
2024/03/25 05:28:58;;;;;;;;;;;2.90;99.90;;;;;;8414851;28;19920;-75
2024/03/25 05:32:59;;;;;;;;;;;2.90;99.90;;;;;;8404680;28;19926;-75
2024/03/25 05:37:00;;;;;;;;;;;2.80;99.90;;;;;;8392371;28;20267;-75
2024/03/25 05:41:01;;;;;;;;;;;2.70;99.90;;;;;;8402103;28;20021;-75
2024/03/25 05:45:01;;;;;;;;;;;2.70;99.90;;;;;;8401717;28;20037;-74
2024/03/25 05:49:03;;;;;;;;;;;2.70;99.90;;;;;;8409685;28;20006;-74
2024/03/25 05:53:04;;;;;;;;;;;2.60;99.90;;;;;;8388752;28;19924;-74
2024/03/25 05:57:05;;;;;;;;;;;2.60;99.90;;;;;;8390804;28;19928;-75
2024/03/25 06:01:07;;;;;;;;;;;2.60;99.90;;;;;;8391871;28;20006;-74
2024/03/25 06:05:08;;;;;;;;;;;2.60;99.90;;;;;;8392205;28;19926;-74
2024/03/25 06:09:09;;;;;;;;;;;2.70;99.90;;;;;;8391155;28;19989;-74
2024/03/25 06:13:10;;;;;;;;;;;2.70;99.90;;;;;;8388885;28;19943;-75
2024/03/25 06:17:11;;;;;;;;;;;2.80;99.90;;;;;;8392798;28;20011;-74
2024/03/25 06:21:12;;;;;;;;;;;2.90;99.90;;;;;;8370404;28;19924;-75
2024/03/25 06:25:13;;;;;;;;;;;2.90;99.90;;;;;;8372736;28;20003;-75
2024/03/25 06:29:14;;;;;;;;;;;3.00;99.90;;;;;;8367999;28;19921;-75
2024/03/25 06:37:34;;;;;;;;;;;3.10;99.90;;;;;;8384540;28;20034;-75
2024/03/25 06:41:35;;;;;;;;;;;3.20;99.90;;;;;;8366189;28;19932;-75
2024/03/25 06:45:35;;;;;;;;;;;3.30;99.90;;;;;;8372131;28;20007;-75
2024/03/25 06:49:36;;;;;;;;;;;3.40;99.90;;;;;;8375273;28;20364;-74
2024/03/25 06:53:37;;;;;;;;;;;3.50;99.90;;;;;;8380759;28;19927;-74
2024/03/25 06:57:37;;;;;;;;;;;3.70;99.90;;;;;;8374376;28;20374;-74
2024/03/25 07:01:38;;;;;;;;;;;3.90;99.90;;;;;;8393853;28;20569;-75
2024/03/25 07:05:39;;;;;;;;;;;4.10;99.90;;;;;;8386206;28;20253;-74
2024/03/25 07:09:40;;;;;;;;;;;4.20;99.90;;;;;;8392637;28;19951;-74
2024/03/25 07:13:41;;;;;;;;;;;4.40;99.90;;;;;;8367348;28;20007;-74
2024/03/25 07:17:42;;;;;;;;;;;4.60;99.90;;;;;;8390430;28;20346;-74
2024/03/25 07:21:43;;;;;;;;;;;4.80;99.90;;;;;;8374739;28;19943;-75
2024/03/25 07:25:44;;;;;;;;;;;5.00;99.90;;;;;;8370973;28;19920;-74
2024/03/25 07:29:44;;;;;;;;;;;5.20;99.90;;;;;;8391642;28;20402;-75
2024/03/25 07:33:45;;;;;;;;;;;5.30;99.90;;;;;;8388566;28;20015;-75
2024/03/25 07:37:46;;;;;;;;;;;5.50;99.90;;;;;;8392546;28;20279;-74
2024/03/25 07:41:47;;;;;;;;;;;5.70;99.90;;;;;;8388572;28;19921;-74
2024/03/25 07:45:48;;;;;;;;;;;5.80;99.90;;;;;;8377555;28;19928;-75
2024/03/25 07:49:48;;;;;;;;;;;6.00;99.90;;;;;;8388475;28;19928;-74
2024/03/25 07:53:49;;;;;;;;;;;6.20;99.90;;;;;;8373836;28;20029;-74
2024/03/25 07:57:50;;;;;;;;;;;6.40;99.90;;;;;;8388858;28;20026;-74
2024/03/25 08:01:51;;;;;;;;;;;6.50;99.90;;;;;;8385402;28;19920;-75
2024/03/25 08:05:51;;;;;;;;;;;6.60;99.90;;;;;;8390024;28;19928;-75
2024/03/25 08:09:52;;;;;;;;;;;6.80;99.90;;;;;;8389109;28;19920;-75
2024/03/25 08:13:53;;;;;;;;;;;6.90;99.90;;;;;;8371037;28;19928;-74
2024/03/25 08:17:54;;;;;;;;;;;7.00;99.90;;;;;;8390520;28;20283;-74
2024/03/25 08:21:54;;;;;;;;;;;7.10;99.90;;;;;;8391717;28;19921;-75
2024/03/25 08:25:56;;;;;;;;;;;7.30;99.90;;;;;;8391699;28;19928;-74
2024/03/25 08:29:56;;;;;;;;;;;7.50;99.90;;;;;;8389835;28;20683;-74
2024/03/25 08:33:57;;;;;;;;;;;7.60;99.90;;;;;;8391986;28;20320;-74
2024/03/25 08:37:58;;;;;;;;;;;7.80;99.90;;;;;;8391307;28;20271;-75
2024/03/25 08:41:58;;;;;;;;;;;7.90;99.90;;;;;;8372118;28;20376;-74
2024/03/25 08:45:59;;;;;;;;;;;8.00;99.90;;;;;;8390459;28;19927;-75
2024/03/25 08:50:00;;;;;;;;;;;8.10;99.90;;;;;;8390403;28;19924;-75
2024/03/25 08:54:01;;;;;;;;;;;8.20;99.90;;;;;;8386077;28;19920;-75
2024/03/25 08:58:02;;;;;;;;;;;8.40;99.90;;;;;;8389268;28;20403;-75
2024/03/25 09:02:03;;;;;;;;;;;8.50;99.90;;;;;;8378840;28;20050;-74
2024/03/25 09:06:04;;;;;;;;;;;8.50;99.90;;;;;;8397148;28;19925;-75
2024/03/25 09:14:25;;;;;;;;;;;8.50;99.90;;;;;;8384930;28;19966;-75
2024/03/25 09:18:25;;;;;;;;;;;8.60;99.90;;;;;;8388780;28;20042;-74
2024/03/25 09:22:26;;;;;;;;;;;8.50;99.90;;;;;;8394551;28;20352;-75
2024/03/25 09:26:27;;;;;;;;;;;8.50;99.90;;;;;;8394255;28;20382;-74
2024/03/25 09:30:28;;;;;;;;;;;8.60;99.90;;;;;;8390427;28;20283;-75
2024/03/25 09:34:29;;;;;;;;;;;8.80;99.90;;;;;;8393923;28;19920;-75
2024/03/25 09:38:30;;;;;;;;;;;8.90;99.90;;;;;;8394272;28;20390;-75
2024/03/25 09:42:33;;;;;;;;;;;8.90;99.90;;;;;;8393161;28;20019;-75
2024/03/25 09:46:35;;;;;;;;;;;8.90;99.90;;;;;;8397207;28;19999;-75
2024/03/25 09:50:36;;;;;;;;;;;9.00;99.90;;;;;;8394991;28;19924;-74
2024/03/25 09:54:37;;;;;;;;;;;9.10;99.90;;;;;;8397073;28;19998;-75
2024/03/25 09:58:39;;;;;;;;;;;9.40;99.90;;;;;;8395284;28;19935;-75
2024/03/25 10:02:41;;;;;;;;;;;9.70;99.90;;;;;;8374989;28;20012;-75
2024/03/25 10:06:41;;;;;;;;;;;10.10;99.90;;;;;;8394630;28;20006;-76
2024/03/25 10:10:43;;;;;;;;;;;10.40;99.90;;;;;;8391003;28;19921;-75
2024/03/25 10:14:44;;;;;;;;;;;10.60;99.90;;;;;;8395388;28;20014;-75
2024/03/25 10:18:45;;;;;;;;;;;10.70;99.90;;;;;;8395962;28;19928;-74
2024/03/25 10:22:49;;;;;;;;;;;10.70;99.90;;;;;;8393247;28;19928;-75
2024/03/25 10:26:50;;;;;;;;;;;10.90;99.90;;;;;;8392433;28;20431;-75
2024/03/25 10:30:51;;;;;;;;;;;11.10;99.90;;;;;;8395168;28;20007;-76
2024/03/25 10:34:53;;;;;;;;;;;11.40;99.90;;;;;;8378133;28;19926;-75
2024/03/25 10:38:59;;;;;;;;;;;11.60;99.90;;;;;;8393339;28;20004;-75
2024/03/25 10:43:02;;;;;;;;;;;11.90;99.90;;;;;;8387157;28;20011;-75
2024/03/25 10:47:05;;;;;;;;;;;12.30;99.90;;;;;;8392383;28;20019;-76
2024/03/25 10:51:10;;;;;;;;;;;12.50;99.90;;;;;;8388267;28;20018;-75
2024/03/25 10:55:11;;;;;;;;;;;12.80;99.90;;;;;;8376996;28;20015;-75
2024/03/25 10:59:13;;;;;;;;;;;12.70;99.90;;;;;;8409106;28;20010;-75
2024/03/25 11:03:14;;;;;;;;;;;12.70;99.90;;;;;;8425337;28;19999;-76
2024/03/25 11:07:15;;;;;;;;;;;12.40;99.90;;;;;;8406892;28;19981;-75
2024/03/25 11:11:16;;;;;;;;;;;12.20;99.90;;;;;;8411019;28;20391;-75
2024/03/25 11:15:17;;;;;;;;;;;12.50;99.90;;;;;;8409266;28;19920;-75
2024/03/25 11:19:18;;;;;;;;;;;12.60;99.90;;;;;;8409165;28;19920;-75
2024/03/25 11:23:19;;;;;;;;;;;13.00;99.90;;;;;;8422567;28;20350;-75
2024/03/25 11:27:26;;;;;;;;;;;13.80;99.90;;;;;;8407373;28;20288;-75
2024/03/25 11:31:27;;;;;;;;;;;14.00;99.90;;;;;;8403901;28;20006;-75
2024/03/25 11:35:27;;;;;;;;;;;14.60;99.90;;;;;;8408908;28;19971;-75
2024/03/25 11:39:32;;;;;;;;;;;15.00;99.90;;;;;;8393376;28;20039;-76
2024/03/25 11:43:33;;;;;;;;;;;15.10;99.90;;;;;;8392439;28;19927;-76
2024/03/25 11:47:33;;;;;;;;;;;15.10;99.90;;;;;;8398358;28;19920;-75
2024/03/25 11:51:34;;;;;;;;;;;15.20;99.90;;;;;;8405051;28;20010;-75
2024/03/25 11:55:35;;;;;;;;;;;15.60;99.90;;;;;;8401811;28;20011;-75
2024/03/25 11:59:36;;;;;;;;;;;16.20;99.90;;;;;;8412196;28;19924;-75
2024/03/25 12:03:37;;;;;;;;;;;15.60;99.90;;;;;;8380857;28;19966;-75
2024/03/25 12:07:38;;;;;;;;;;;15.20;99.90;;;;;;8403982;28;19920;-76
2024/03/25 12:11:39;;;;;;;;;;;15.80;99.90;;;;;;8390719;28;20385;-76
2024/03/25 12:15:40;;;;;;;;;;;16.70;99.90;;;;;;8385657;28;19920;-75
2024/03/25 12:19:41;;;;;;;;;;;16.70;99.90;;;;;;8406067;28;19920;-74
2024/03/25 12:23:42;;;;;;;;;;;16.60;99.90;;;;;;8405291;28;19960;-75
2024/03/25 12:27:45;;;;;;;;;;;16.40;99.90;;;;;;8391191;28;20002;-75
2024/03/25 12:31:56;;;;;;;;;;;16.10;99.90;;;;;;8391414;28;20354;-76
2024/03/25 12:35:57;;;;;;;;;;;16.10;99.90;;;;;;8411300;28;20049;-76
2024/03/25 12:40:02;;;;;;;;;;;16.50;99.90;;;;;;8415779;28;19920;-75
2024/03/25 12:44:03;;;;;;;;;;;16.60;99.90;;;;;;8413718;28;20049;-76
2024/03/25 12:48:04;;;;;;;;;;;16.30;99.90;;;;;;8414250;28;19920;-76
2024/03/25 12:52:05;;;;;;;;;;;16.20;99.90;;;;;;8413554;28;19928;-75
2024/03/25 12:56:06;;;;;;;;;;;16.00;99.90;;;;;;8393818;28;20393;-76
2024/03/25 13:00:08;;;;;;;;;;;15.60;99.90;;;;;;8413840;28;19995;-75
2024/03/25 13:04:09;;;;;;;;;;;15.40;99.90;;;;;;8398111;28;20007;-76
2024/03/25 13:08:10;;;;;;;;;;;14.90;99.90;;;;;;8395828;28;20003;-75
2024/03/25 13:12:11;;;;;;;;;;;14.70;99.90;;;;;;8397261;28;19927;-76
2024/03/25 13:16:11;;;;;;;;;;;14.80;99.90;;;;;;8414866;28;19928;-75
2024/03/25 13:20:13;;;;;;;;;;;14.70;99.90;;;;;;8412488;28;19955;-75
2024/03/25 13:24:14;;;;;;;;;;;14.90;99.90;;;;;;8413800;28;20003;-75
2024/03/25 13:28:15;;;;;;;;;;;15.10;99.90;;;;;;8411769;28;20439;-75
2024/03/25 13:32:15;;;;;;;;;;;15.00;99.90;;;;;;8410432;28;20294;-75
2024/03/25 13:36:17;;;;;;;;;;;15.00;99.90;;;;;;8414385;28;19924;-75
2024/03/25 13:40:18;;;;;;;;;;;15.20;99.90;;;;;;8409652;28;20037;-75
2024/03/25 13:44:19;;;;;;;;;;;15.50;99.90;;;;;;8395616;28;20073;-75
2024/03/25 13:48:20;;;;;;;;;;;15.40;99.90;;;;;;8408404;28;19924;-75
2024/03/25 13:52:20;;;;;;;;;;;15.20;99.90;;;;;;8411918;28;19931;-75
2024/03/25 13:56:21;;;;;;;;;;;15.40;99.90;;;;;;8408670;28;19964;-75
2024/03/25 14:00:23;;;;;;;;;;;15.70;99.90;;;;;;8408184;28;19973;-75
2024/03/25 14:04:24;;;;;;;;;;;15.80;99.90;;;;;;8406937;28;20040;-75
2024/03/25 14:08:24;;;;;;;;;;;15.90;99.90;;;;;;8389497;28;20374;-75
2024/03/25 14:12:25;;;;;;;;;;;16.10;99.90;;;;;;8390647;28;20168;-76
2024/03/25 14:16:26;;;;;;;;;;;16.30;99.90;;;;;;8411831;28;20027;-76
2024/03/25 14:20:26;;;;;;;;;;;17.20;99.90;;;;;;8410049;28;20014;-75
2024/03/25 14:24:27;;;;;;;;;;;18.20;99.90;;;;;;8389326;28;19931;-76
2024/03/25 14:28:28;;;;;;;;;;;18.20;99.90;;;;;;8405938;28;19959;-75
2024/03/25 14:32:30;;;;;;;;;;;18.10;99.90;;;;;;8402488;28;19961;-76
2024/03/25 14:36:30;;;;;;;;;;;19.00;99.90;;;;;;8401900;28;20058;-76
2024/03/25 14:40:31;;;;;;;;;;;20.40;99.90;;;;;;8406110;28;19924;-75
2024/03/25 14:44:32;;;;;;;;;;;21.10;99.90;;;;;;8429189;28;19979;-78
2024/03/25 14:48:32;;;;;;;;;;;21.60;99.90;;;;;;8402515;28;19923;-76
2024/03/25 14:52:33;;;;;;;;;;;22.00;99.90;;;;;;8403106;28;19965;-76
2024/03/25 14:56:34;;;;;;;;;;;22.20;99.90;;;;;;8408194;28;19931;-76
2024/03/25 15:00:35;;;;;;;;;;;22.30;99.90;;;;;;8403394;28;20040;-77
2024/03/25 15:04:36;;;;;;;;;;;22.60;99.90;;;;;;8424162;28;20007;-76
2024/03/25 15:08:38;;;;;;;;;;;22.40;99.90;;;;;;8386875;28;20031;-77
2024/03/25 15:12:39;;;;;;;;;;;22.10;99.90;;;;;;8378969;28;19950;-77
2024/03/25 15:16:40;;;;;;;;;;;21.60;99.90;;;;;;8403666;28;20275;-76
2024/03/25 15:20:41;;;;;;;;;;;21.40;99.90;;;;;;8392970;28;20002;-77
2024/03/25 15:24:42;;;;;;;;;;;21.30;99.90;;;;;;8399841;28;19920;-76
2024/03/25 15:28:43;;;;;;;;;;;21.50;99.90;;;;;;8403552;28;19920;-76
2024/03/25 15:32:44;;;;;;;;;;;21.50;99.90;;;;;;8401020;28;19965;-76
2024/03/25 15:36:45;;;;;;;;;;;20.80;99.90;;;;;;8400045;28;19967;-76
2024/03/25 15:40:51;;;;;;;;;;;20.20;99.90;;;;;;8385514;28;20018;-77
2024/03/25 15:44:52;;;;;;;;;;;20.00;99.90;;;;;;8401876;28;20476;-76
2024/03/25 15:48:52;;;;;;;;;;;19.90;99.90;;;;;;8387848;28;20268;-76
2024/03/25 15:52:53;;;;;;;;;;;19.70;99.90;;;;;;8402279;28;19974;-76
2024/03/25 15:56:54;;;;;;;;;;;19.20;99.90;;;;;;8407278;28;20298;-76
2024/03/25 16:00:55;;;;;;;;;;;19.20;99.90;;;;;;8407680;28;20394;-76
2024/03/25 16:04:56;;;;;;;;;;;19.10;99.90;;;;;;8385568;28;20099;-76
2024/03/25 16:08:58;;;;;;;;;;;19.40;99.90;;;;;;8405951;28;19934;-76
2024/03/25 16:12:59;;;;;;;;;;;19.70;99.90;;;;;;8396523;28;20728;-76
2024/03/25 16:17:00;;;;;;;;;;;19.80;99.90;;;;;;8405881;28;20006;-77
2024/03/25 16:21:02;;;;;;;;;;;19.80;99.90;;;;;;8408171;28;19927;-76
2024/03/25 16:25:03;;;;;;;;;;;19.80;99.90;;;;;;8409136;28;19931;-76
2024/03/25 16:29:04;;;;;;;;;;;19.80;99.90;;;;;;8411623;28;20055;-76
2024/03/25 16:33:05;;;;;;;;;;;19.70;99.90;;;;;;8407229;28;19927;-77
2024/03/25 16:37:06;;;;;;;;;;;19.40;99.90;;;;;;8410265;28;19924;-77
2024/03/25 16:41:07;;;;;;;;;;;19.10;99.90;;;;;;8398824;28;19924;-77
2024/03/25 16:45:07;;;;;;;;;;;19.00;99.90;;;;;;8380864;28;19934;-76
2024/03/25 16:49:08;;;;;;;;;;;18.80;99.90;;;;;;8394107;28;19928;-76
2024/03/25 16:53:10;;;;;;;;;;;18.50;99.90;;;;;;8384455;28;19924;-76
2024/03/25 16:57:11;;;;;;;;;;;18.20;99.90;;;;;;8366309;28;20287;-77
2024/03/25 17:01:12;;;;;;;;;;;18.10;99.90;;;;;;8366365;28;19994;-77
2024/03/25 17:05:13;;;;;;;;;;;17.90;99.90;;;;;;8390270;28;20372;-76
2024/03/25 17:09:14;;;;;;;;;;;17.40;99.90;;;;;;8390787;28;19930;-76
2024/03/25 17:13:15;;;;;;;;;;;17.00;99.90;;;;;;8372977;28;19920;-76
2024/03/25 17:17:16;;;;;;;;;;;16.60;99.90;;;;;;8379843;28;19929;-76
2024/03/25 17:21:16;;;;;;;;;;;16.30;99.90;;;;;;8382238;28;19928;-76
2024/03/25 17:25:17;;;;;;;;;;;15.90;99.90;;;;;;8384975;28;19920;-76
2024/03/25 17:29:18;;;;;;;;;;;15.60;99.90;;;;;;8392869;28;19927;-76
2024/03/25 17:33:19;;;;;;;;;;;15.20;99.90;;;;;;8383051;28;19971;-76
2024/03/25 17:37:20;;;;;;;;;;;14.90;99.90;;;;;;8364903;28;19928;-76
2024/03/25 17:41:21;;;;;;;;;;;14.60;99.90;;;;;;8365736;28;20310;-76
2024/03/25 17:45:22;;;;;;;;;;;14.30;99.90;;;;;;8386694;28;19976;-76
2024/03/25 17:49:23;;;;;;;;;;;14.10;99.90;;;;;;8389014;28;20377;-76
2024/03/25 17:53:33;;;;;;;;;;;13.90;99.90;;;;;;8379608;28;20369;-76
2024/03/25 17:57:34;;;;;;;;;;;13.70;99.90;;;;;;8391960;28;19921;-76
2024/03/25 18:01:35;;;;;;;;;;;13.50;99.90;;;;;;8374138;28;19986;-76
2024/03/25 18:05:36;;;;;;;;;;;13.40;99.90;;;;;;8370966;28;19969;-76
2024/03/25 18:09:37;;;;;;;;;;;13.20;99.90;;;;;;8379464;28;20459;-76
2024/03/25 18:13:37;;;;;;;;;;;13.10;99.90;;;;;;8381731;28;19957;-76
2024/03/25 18:17:38;;;;;;;;;;;12.90;99.90;;;;;;8398884;28;19994;-76
2024/03/25 18:21:39;;;;;;;;;;;12.80;99.90;;;;;;8383447;28;19924;-76
2024/03/25 18:25:40;;;;;;;;;;;12.60;99.90;;;;;;8385996;28;19928;-76
2024/03/25 18:29:41;;;;;;;;;;;12.50;99.90;;;;;;8378936;28;19920;-76
2024/03/25 18:33:42;;;;;;;;;;;12.50;99.90;;;;;;8371339;28;20046;-76
2024/03/25 18:37:42;;;;;;;;;;;12.40;99.90;;;;;;8392448;28;19924;-76
2024/03/25 18:41:43;;;;;;;;;;;12.30;99.90;;;;;;8381608;28;19959;-76
2024/03/25 18:45:44;;;;;;;;;;;12.20;99.90;;;;;;8372164;28;20014;-76
2024/03/25 18:49:45;;;;;;;;;;;12.10;99.90;;;;;;8379309;28;19967;-76
2024/03/25 18:53:46;;;;;;;;;;;12.00;99.90;;;;;;8392773;28;19924;-76
2024/03/25 18:57:47;;;;;;;;;;;12.00;99.90;;;;;;8380490;28;19924;-76
2024/03/25 19:01:48;;;;;;;;;;;11.90;99.90;;;;;;8376525;28;19920;-76
2024/03/25 19:05:49;;;;;;;;;;;11.80;99.90;;;;;;8365054;28;19920;-76
2024/03/25 19:09:49;;;;;;;;;;;11.70;99.90;;;;;;8380934;28;19928;-77
2024/03/25 19:13:50;;;;;;;;;;;11.70;99.90;;;;;;8369479;28;23937;-76
2024/03/25 19:17:51;;;;;;;;;;;11.60;99.90;;;;;;8379991;28;19928;-76
2024/03/25 19:21:52;;;;;;;;;;;11.60;99.90;;;;;;8393214;28;19975;-76
2024/03/25 19:25:53;;;;;;;;;;;11.50;99.90;;;;;;8386163;28;19928;-76
2024/03/25 19:29:54;;;;;;;;;;;11.50;99.90;;;;;;8376073;28;19932;-76
2024/03/25 19:33:54;;;;;;;;;;;11.40;99.90;;;;;;8376724;28;20398;-76
2024/03/25 19:37:55;;;;;;;;;;;11.30;99.90;;;;;;8380574;28;19926;-76
2024/03/25 19:41:56;;;;;;;;;;;11.30;99.90;;;;;;8391560;28;20011;-76
2024/03/25 19:45:57;;;;;;;;;;;11.30;99.90;;;;;;8374908;28;20401;-76
2024/03/25 19:50:35;;;;;;;;;;;11.30;99.90;;;;;;8384245;28;19965;-76
2024/03/25 19:54:36;;;;;;;;;;;11.30;99.90;;;;;;8357915;28;20141;-76
2024/03/25 19:58:55;;;;;;;;;;;11.20;99.90;;;;;;8366363;28;20762;-76
2024/03/25 20:02:56;;;;;;;;;;;11.10;99.90;;;;;;8374869;28;19920;-76
2024/03/25 20:06:58;;;;;;;;;;;10.90;99.90;;;;;;8383537;28;20705;-76
2024/03/25 20:10:59;;;;;;;;;;;10.80;99.90;;;;;;8383254;28;19924;-76
2024/03/25 20:15:00;;;;;;;;;;;10.70;99.90;;;;;;8381691;28;19950;-76
2024/03/25 20:19:02;;;;;;;;;;;10.60;99.90;;;;;;8377800;28;19920;-76
2024/03/25 20:23:03;;;;;;;;;;;10.50;99.90;;;;;;8364075;28;19927;-76
2024/03/25 20:27:04;;;;;;;;;;;10.30;99.90;;;;;;8380029;28;20020;-76
2024/03/25 20:31:05;;;;;;;;;;;10.20;99.90;;;;;;8373712;28;19927;-76
2024/03/25 20:35:06;;;;;;;;;;;10.10;99.90;;;;;;8363295;28;19928;-76
2024/03/25 20:39:07;;;;;;;;;;;10.00;99.90;;;;;;8380329;28;19924;-76
2024/03/25 20:43:08;;;;;;;;;;;10.00;99.90;;;;;;8377410;28;20364;-76
2024/03/25 20:47:09;;;;;;;;;;;10.00;99.90;;;;;;8361539;28;19981;-76
2024/03/25 20:51:09;;;;;;;;;;;9.90;99.90;;;;;;8371206;28;20032;-76
2024/03/25 20:55:10;;;;;;;;;;;9.90;99.90;;;;;;8391719;28;19986;-76
2024/03/25 20:59:11;;;;;;;;;;;9.80;99.90;;;;;;8385331;28;19924;-76
2024/03/25 21:03:11;;;;;;;;;;;9.80;99.90;;;;;;8387060;28;20088;-76
2024/03/25 21:07:12;;;;;;;;;;;9.80;99.90;;;;;;8376357;28;19932;-75
2024/03/25 21:11:13;;;;;;;;;;;9.70;99.90;;;;;;8385168;28;19981;-76
2024/03/25 21:15:14;;;;;;;;;;;9.60;99.90;;;;;;8366549;28;20389;-76
2024/03/25 21:19:15;;;;;;;;;;;9.60;99.90;;;;;;8384765;28;20288;-76
2024/03/25 21:23:16;;;;;;;;;;;9.60;99.90;;;;;;8383137;28;20011;-76
2024/03/25 21:27:17;;;;;;;;;;;9.50;99.90;;;;;;8373328;28;19928;-76
2024/03/25 21:31:18;;;;;;;;;;;9.50;99.90;;;;;;8386225;28;20543;-76
2024/03/25 21:35:18;;;;;;;;;;;9.40;99.90;;;;;;8377959;28;20297;-76
2024/03/25 21:39:19;;;;;;;;;;;9.40;99.90;;;;;;8400439;28;19971;-76
2024/03/25 21:43:23;;;;;;;;;;;9.30;99.90;;;;;;8384288;28;20230;-76
2024/03/25 21:47:24;;;;;;;;;;;9.30;99.90;;;;;;8380539;28;19920;-76
2024/03/25 21:51:24;;;;;;;;;;;9.20;99.90;;;;;;8389192;28;20444;-76
2024/03/25 21:55:25;;;;;;;;;;;9.10;99.90;;;;;;8362898;28;20279;-76
2024/03/25 21:59:26;;;;;;;;;;;9.10;99.90;;;;;;8377639;28;19920;-75
2024/03/25 22:03:27;;;;;;;;;;;9.10;99.90;;;;;;8375196;28;19928;-76
2024/03/25 22:07:28;;;;;;;;;;;9.00;99.90;;;;;;8384616;28;19971;-75
2024/03/25 22:11:29;;;;;;;;;;;9.00;99.90;;;;;;8374774;28;19928;-76
2024/03/25 22:15:30;;;;;;;;;;;8.90;99.90;;;;;;8383456;28;19928;-76
2024/03/25 22:19:31;;;;;;;;;;;8.90;99.90;;;;;;8378725;28;19934;-76
2024/03/25 22:23:32;;;;;;;;;;;8.90;99.90;;;;;;8387774;28;19921;-76
2024/03/25 22:27:33;;;;;;;;;;;8.80;99.90;;;;;;8377879;28;20704;-75
2024/03/25 22:31:34;;;;;;;;;;;8.80;99.90;;;;;;8379139;28;19953;-76
2024/03/25 22:35:35;;;;;;;;;;;8.80;99.90;;;;;;8389842;28;19949;-75
2024/03/25 22:39:39;;;;;;;;;;;8.80;99.90;;;;;;8388199;28;19920;-76
2024/03/25 22:43:40;;;;;;;;;;;8.80;99.90;;;;;;8374268;28;19977;-75
2024/03/25 22:47:41;;;;;;;;;;;8.80;99.90;;;;;;8378896;28;19920;-76
2024/03/25 22:51:42;;;;;;;;;;;8.70;99.90;;;;;;8379854;28;20404;-76
2024/03/25 22:55:42;;;;;;;;;;;8.70;99.90;;;;;;8378661;28;19920;-75
2024/03/25 22:59:43;;;;;;;;;;;8.70;99.90;;;;;;8362000;28;20034;-76
2024/03/25 23:03:44;;;;;;;;;;;8.70;99.90;;;;;;8377857;28;19928;-76
2024/03/25 23:07:45;;;;;;;;;;;8.70;99.90;;;;;;8376252;28;19924;-76
2024/03/25 23:11:46;;;;;;;;;;;8.70;99.90;;;;;;8370337;28;20511;-76
2024/03/25 23:15:47;;;;;;;;;;;8.60;99.90;;;;;;8377382;28;20375;-76
2024/03/25 23:19:48;;;;;;;;;;;8.60;99.90;;;;;;8380137;28;20291;-76
2024/03/25 23:23:49;;;;;;;;;;;8.60;99.90;;;;;;8376202;28;20283;-76
2024/03/25 23:27:49;;;;;;;;;;;8.50;99.90;;;;;;8394943;28;19920;-76
2024/03/25 23:31:50;;;;;;;;;;;8.50;99.90;;;;;;8363894;28;19924;-76
2024/03/25 23:35:52;;;;;;;;;;;8.40;99.90;;;;;;8381530;28;19924;-76
2024/03/25 23:39:53;;;;;;;;;;;8.40;99.90;;;;;;8377168;28;19927;-76
2024/03/25 23:43:54;;;;;;;;;;;8.40;99.90;;;;;;8380177;28;19926;-75
2024/03/25 23:47:55;;;;;;;;;;;8.30;99.90;;;;;;8372881;28;20441;-76
2024/03/25 23:51:55;;;;;;;;;;;8.30;99.90;;;;;;8379680;28;20725;-75
2024/03/25 23:55:56;;;;;;;;;;;8.30;99.90;;;;;;8384028;28;19924;-76